Vliegveld raporten

 

EHGR - Gilze-Rijen Rnla, Netherlands
Distance from station: WZW 7km
Updated: 22-10-2018 20:00
Helder
Helder
 Wind van NNW
Wind: NNW 11 km/h
Temperatuur: 9°C
Wind Chill: 7°C
Dauwpunt: 5°C
Vochtigheid: 76%
Barometer: 1034 hPa
Clouds: Helder
Visibility: 10 km
2018/10/22 18:00 EHGR 221800Z AUTO 33006KT 270V020 9999 NCD 09/05 Q1034 BLU 33006KT 9999 FEW045
EHEH - Eindhoven Rnlafb, Netherlands
Distance from station: OZO 30km
Updated: 22-10-2018 19:55
Helder
Helder
 Wind van NNW
Wind: NNW 7 km/h
Temperatuur: 9°C
Wind Chill: 8°C
Dauwpunt: 5°C
Vochtigheid: 76%
Barometer: 1034 hPa
Clouds: Helder
Visibility: 10 km
2018/10/22 17:55 EHEH 221755Z AUTO 33004KT 9999 NCD 09/05 Q1034 BLU 35008KT CAVOK BECMG 27005KT
EHVK - Volkel Rnlafb, Netherlands
Distance from station: O 48km
Updated: 22-10-2018 19:55
Helder
Helder
 Wind van NNW
Wind: NNW 7 km/h
Temperatuur: 9°C
Wind Chill: 8°C
Dauwpunt: 5°C
Vochtigheid: 76%
Barometer: 1034 hPa
Clouds: Helder
Visibility: 10 km
2018/10/22 17:55 EHVK 221755Z AUTO 33004KT 310V010 9999 NCD 09/05 Q1034 BLU
 
EHWO - Woensdrecht Rnla, Netherlands
Distance from station: WZW 50km
Updated: 22-10-2018 19:55
Helder
Helder
 Wind van N
Wind: N 6 km/h
Temperatuur: 9°C
Dauwpunt: 5°C
Vochtigheid: 76%
Barometer: 1034 hPa
Clouds: Helder
Visibility: 10 km
2018/10/22 17:55 EHWO 221755Z AUTO 36003KT 300V040 9999 NCD 09/05 Q1034 BLU
EHRD - Rotterdam Airpor, Netherlands
Distance from station: NW 56km
Updated: 22-10-2018 19:55
Meestal bewolkt
Meestal bewolkt
 Wind van WNW
Wind: WNW 2 km/h
Temperatuur: 9°C
Dauwpunt: 5°C
Vochtigheid: 76%
Barometer: 1034 hPa
Clouds: Meestal bewolkt
Visibility: 10 km
Cloud details: Meestal bewolkt 1158 m
2018/10/22 17:55 EHRD 221755Z AUTO 30001KT 9999 BKN038 09/05 Q1034 NOSIG
EHDL - Deelen Rnlafb, Netherlands
Distance from station: NO 80km
Updated: 22-10-2018 19:55
Helder
Helder
 Wind van NNO
Wind: NNO 2 km/h
Temperatuur: 7°C
Dauwpunt: 4°C
Vochtigheid: 81%
Barometer: 1033 hPa
Clouds: Helder
Visibility: 10 km
2018/10/22 17:55 EHDL 221755Z AUTO 02001KT 9999 NCD 07/04 Q1033 BLU
 
EHAM - Amsterdam/Schiph, Netherlands
Distance from station: N 83km
Updated: 22-10-2018 19:55
Meestal bewolkt
Meestal bewolkt
 Wind van varies
Wind: varies 4 km/h
Temperatuur: 10°C
Dauwpunt: 4°C
Vochtigheid: 67%
Barometer: 1034 hPa
Clouds: Meestal bewolkt
Visibility: 10 km
Cloud details: Meestal bewolkt 1097 m
2018/10/22 17:55 EHAM 221755Z VRB02KT 9999 BKN036 10/04 Q1034 NOSIG
EHBK - Zuid-Limburg/Bee, Netherlands
Distance from station: ZO 91km
Updated: 22-10-2018 19:55
Meestal bewolkt
Meestal bewolkt
 Wind van N
Wind: N 6 km/h
Temperatuur: 11°C
Dauwpunt: 5°C
Vochtigheid: 67%
Barometer: 1033 hPa
Clouds: Meestal bewolkt
Visibility: 10 km
Cloud details: Enkele wolken 1097 m
Meestal bewolkt 1311 m
2018/10/22 17:55 EHBK 221755Z AUTO 01003KT 340V050 9999 FEW036 BKN043 11/05 Q1033 NOSIG
EHFS - Vlissingen, Netherlands
Distance from station: W 99km
Updated: 22-10-2018 19:55
Zwaar bewolkt
Zwaar bewolkt
 Wind van N
Wind: N 9 km/h
Temperatuur: 12°C
Dauwpunt: 5°C
Vochtigheid: 63%
Barometer: 1035 hPa
Clouds: Zwaar bewolkt
Visibility: 10 km
Cloud details: Zwaar bewolkt 1097 m
2018/10/22 17:55 EHFS 221755Z AUTO 35005KT 9999 OVC036/// 12/05 Q1035 W///H///
 
EHSC - Goeree Le Sea, Netherlands
Distance from station: WNW 100km
Updated: 22-10-2018 19:55

 Wind van N
Wind: N 22 km/h
Temperatuur: 13°C
Dauwpunt: 4°C
Vochtigheid: 55%
Barometer: 1034 hPa
Visibility: 10 km
2018/10/22 17:55 EHSC 221755Z AUTO 35012KT 9999 ///////// 13/04 Q1034 W16/H12
EBBL - Kleine-Brogel(Ba, Belgium
Distance from station: ZO 56km
Updated: 22-10-2018 19:55
Gedeeltelijk bewolkt
Gedeeltelijk bewolkt
 Wind van NNW
Wind: NNW 6 km/h
Temperatuur: 10°C
Dauwpunt: 6°C
Vochtigheid: 76%
Barometer: 1034 hPa
Clouds: Gedeeltelijk bewolkt
Visibility: 10 km
Cloud details: Gedeeltelijk bewolkt 1372 m
2018/10/22 17:55 EBBL 221755Z 34003KT 9999 SCT045 10/06 Q1034 BLU BLU
EBAW - Antwerp/Deurne, Belgium
Distance from station: ZW 57km
Updated: 22-10-2018 19:50
Gedeeltelijk bewolkt
Gedeeltelijk bewolkt
 Wind van N
Wind: N 11 km/h
Temperatuur: 12°C
Dauwpunt: 5°C
Vochtigheid: 63%
Barometer: 1034 hPa
Clouds: Gedeeltelijk bewolkt
Visibility: 10 km
Cloud details: Gedeeltelijk bewolkt 1402 m
2018/10/22 17:50 EBAW 221750Z 35006KT 9999 SCT046 12/05 Q1034 NOSIG
 
EBDT - Schaffen, Belgium
Distance from station: Z 63km
Updated: 22-10-2018 19:55
Enkele wolken
Enkele wolken
 Wind van NNW
Wind: NNW 15 km/h
Temperatuur: 11°C
Dauwpunt: 6°C
Vochtigheid: 72%
Barometer: 1034 hPa
Clouds: Enkele wolken
Visibility: 10 km
Cloud details: Enkele wolken 1402 m
2018/10/22 17:55 EBDT 221755Z AUTO 34008KT 9999 FEW046/// 11/06 Q1034 BLU
EBBR - Brussels Nationa, Belgium
Distance from station: ZZW 83km
Updated: 22-10-2018 19:50
Enkele wolken
Enkele wolken
 Wind van N
Wind: N 9 km/h
Temperatuur: 11°C
Dauwpunt: 6°C
Vochtigheid: 72%
Barometer: 1034 hPa
Clouds: Enkele wolken
Visibility: 10 km
Cloud details: Enkele wolken 1402 m
2018/10/22 17:50 EBBR 221750Z 35005KT 9999 FEW046 11/06 Q1034 NOSIG
EBBE - Beauvechain (baf, Belgium
Distance from station: Z 94km
Updated: 22-10-2018 19:55
Enkele wolken
Enkele wolken
 Wind van NNW
Wind: NNW 7 km/h
Temperatuur: 10°C
Wind Chill: 9°C
Dauwpunt: 5°C
Vochtigheid: 71%
Barometer: 1034 hPa
Clouds: Enkele wolken
Visibility: 10 km
Cloud details: Enkele wolken 1311 m
2018/10/22 17:55 EBBE 221755Z 34004KT 9999 FEW043 10/05 Q1034 BLU BLU
 
EDLV - Niederrhein, Germany
Distance from station: O 79km
Updated: 22-10-2018 19:50
Helder
Helder
 Wind van varies
Wind: varies 4 km/h
Temperatuur: 11°C
Dauwpunt: 5°C
Vochtigheid: 67%
Barometer: 1033 hPa
Overzicht: Helder
Visibility: greater than 10 km
2018/10/22 17:50 EDLV 221750Z VRB02KT CAVOK 11/05 Q1033
ETNG - Geilenkirchen(Na, Germany
Distance from station: ZO 99km
Updated: 22-10-2018 19:50
Gedeeltelijk bewolkt
Gedeeltelijk bewolkt
 Wind van NNW
Wind: NNW 4 km/h
Temperatuur: 10°C
Dauwpunt: 6°C
Vochtigheid: 76%
Barometer: 1033 hPa
Clouds: Gedeeltelijk bewolkt
Visibility: 10 km
Cloud details: Gedeeltelijk bewolkt 1463 m
2018/10/22 17:50 ETNG 221750Z 34002KT 9999 SCT048 10/06 Q1033